createdAt,value
2019-01-02T00:05:01.129Z,5.00
2019-01-02T00:13:32.440Z,5.00
2019-01-02T00:16:20.480Z,4.80
2019-01-02T00:27:42.659Z,4.30
2019-01-02T00:33:27.491Z,4.20
2019-01-02T00:41:59.933Z,4.00
2019-01-02T00:56:18.309Z,4.20
2019-01-02T00:59:28.046Z,4.20
2019-01-02T01:02:18.351Z,4.50
2019-01-02T01:17:15.224Z,4.30
2019-01-02T01:20:04.817Z,4.30
2019-01-02T01:31:54.877Z,4.30
2019-01-02T01:59:58.586Z,4.20
2019-01-02T02:44:13.324Z,3.80
2019-01-02T02:50:51.727Z,4.00
2019-01-02T03:02:50.640Z,3.30
2019-01-02T03:52:12.912Z,3.40
2019-01-02T03:55:54.507Z,3.50
2019-01-02T04:01:36.033Z,3.30
2019-01-02T04:12:07.818Z,3.30
2019-01-02T04:21:07.310Z,3.20
2019-01-02T04:23:41.187Z,3.10
2019-01-02T04:29:23.763Z,3.20
2019-01-02T04:31:56.669Z,3.30
2019-01-02T04:34:25.379Z,3.30
2019-01-02T04:36:54.067Z,3.40
2019-01-02T04:41:51.098Z,3.30
2019-01-02T04:44:19.751Z,3.40
2019-01-02T04:46:48.385Z,3.40
2019-01-02T04:49:17.068Z,3.10
2019-01-02T04:51:45.733Z,3.00
2019-01-02T04:54:14.428Z,3.00
2019-01-02T04:56:43.116Z,3.10
2019-01-02T04:59:11.756Z,3.00
2019-01-02T05:04:08.833Z,3.00
2019-01-02T05:06:37.478Z,2.90
2019-01-02T05:09:07.632Z,2.90
2019-01-02T05:11:36.266Z,2.90
2019-01-02T05:14:04.922Z,2.80
2019-01-02T05:16:33.556Z,2.90
2019-01-02T05:19:02.236Z,3.00
2019-01-02T05:21:31.197Z,2.60
2019-01-02T05:26:28.198Z,2.90
2019-01-02T05:28:56.849Z,2.90
2019-01-02T05:31:25.570Z,2.90
2019-01-02T05:33:54.239Z,2.90
2019-01-02T05:36:22.876Z,2.80
2019-01-02T05:38:51.529Z,2.70
2019-01-02T05:41:20.185Z,2.70
2019-01-02T05:43:48.836Z,2.00
2019-01-02T05:48:45.816Z,2.60
2019-01-02T05:51:14.708Z,2.60
2019-01-02T05:53:43.601Z,2.50
2019-01-02T05:56:12.352Z,2.60
2019-01-02T05:58:40.991Z,2.80
2019-01-02T06:01:09.689Z,2.80
2019-01-02T06:03:38.340Z,2.70
2019-01-02T06:06:07.298Z,2.90
2019-01-02T06:11:04.505Z,3.00
2019-01-02T06:13:33.172Z,2.90
2019-01-02T06:16:01.864Z,2.60
2019-01-02T06:18:30.572Z,2.60
2019-01-02T06:20:59.549Z,2.60
2019-01-02T06:23:28.188Z,2.80
2019-01-02T06:25:56.832Z,2.70
2019-01-02T06:28:25.509Z,2.40
2019-01-02T06:33:22.602Z,2.50
2019-01-02T06:35:51.245Z,2.60
2019-01-02T06:38:19.934Z,2.60
2019-01-02T06:40:48.875Z,2.40
2019-01-02T06:43:17.549Z,2.60
2019-01-02T06:45:46.466Z,2.70
2019-01-02T06:48:15.158Z,2.80
2019-01-02T06:53:12.166Z,2.70
2019-01-02T06:55:41.061Z,2.70
2019-01-02T06:58:09.716Z,2.70
2019-01-02T07:00:40.392Z,2.80
2019-01-02T07:03:09.151Z,2.70
2019-01-02T07:05:37.879Z,2.60
2019-01-02T07:08:06.540Z,2.40
2019-01-02T07:10:35.187Z,2.40
2019-01-02T07:15:32.193Z,2.30
2019-01-02T07:18:00.904Z,2.20
2019-01-02T07:20:29.623Z,2.20
2019-01-02T07:22:58.280Z,2.30
2019-01-02T07:25:27.206Z,2.30
2019-01-02T07:27:55.924Z,2.40
2019-01-02T07:30:25.168Z,2.40
2019-01-02T07:32:53.859Z,2.40
2019-01-02T07:38:44.609Z,2.30
2019-01-02T07:41:49.999Z,2.50
2019-01-02T07:45:10.137Z,2.30
2019-01-02T07:48:22.903Z,2.10
2019-01-02T07:51:23.188Z,2.10
2019-01-02T07:54:42.049Z,2.00
2019-01-02T07:57:37.256Z,1.80
2019-01-02T08:01:01.005Z,1.90
2019-01-02T08:04:01.930Z,2.00
2019-01-02T08:07:05.897Z,2.00
2019-01-02T08:10:11.608Z,1.90
2019-01-02T08:13:23.000Z,2.10
2019-01-02T08:16:19.871Z,2.10
2019-01-02T08:19:37.818Z,2.10
2019-01-02T08:22:38.999Z,2.10
2019-01-02T08:25:30.766Z,2.00
2019-01-02T08:28:36.532Z,2.20
2019-01-02T08:31:24.583Z,2.30
2019-01-02T08:34:35.538Z,2.20
2019-01-02T08:37:24.023Z,2.00
2019-01-02T08:40:34.177Z,2.10
2019-01-02T08:43:15.092Z,2.30
2019-01-02T08:46:33.966Z,2.40
2019-01-02T08:52:31.241Z,2.30
2019-01-02T08:55:35.335Z,2.20
2019-01-02T08:58:41.598Z,2.20
2019-01-02T09:01:50.463Z,2.10
2019-01-02T09:05:06.676Z,2.20
2019-01-02T09:08:31.519Z,2.30
2019-01-02T09:11:33.616Z,2.40
2019-01-02T09:14:34.420Z,2.20
2019-01-02T09:17:59.866Z,2.30
2019-01-02T09:21:09.363Z,2.50
2019-01-02T09:24:32.903Z,2.70
2019-01-02T09:30:38.393Z,2.70
2019-01-02T09:34:02.240Z,2.70
2019-01-02T09:37:16.406Z,2.40
2019-01-02T09:40:37.417Z,2.40
2019-01-02T09:43:46.623Z,2.60
2019-01-02T09:46:57.160Z,2.80
2019-01-02T09:49:51.640Z,2.90
2019-01-02T09:52:57.900Z,2.60
2019-01-02T09:56:03.628Z,2.50
2019-01-02T09:58:58.685Z,2.60
2019-01-02T10:02:04.500Z,2.60
2019-01-02T10:05:06.362Z,2.70
2019-01-02T10:08:13.098Z,2.90
2019-01-02T10:13:43.704Z,3.10
2019-01-02T10:16:59.588Z,3.00
2019-01-02T10:19:53.336Z,3.00
2019-01-02T10:23:02.971Z,3.10
2019-01-02T10:26:16.717Z,3.10
2019-01-02T10:29:02.605Z,3.00
2019-01-02T10:31:54.515Z,2.80
2019-01-02T10:37:52.742Z,2.90
2019-01-02T10:40:54.337Z,3.00
2019-01-02T10:43:56.413Z,3.20
2019-01-02T10:47:07.677Z,3.20
2019-01-02T10:50:24.236Z,3.00
2019-01-02T10:53:26.393Z,3.20
2019-01-02T10:56:44.015Z,2.90
2019-01-02T10:59:47.026Z,3.20
2019-01-02T11:02:48.576Z,3.10
2019-01-02T11:08:54.973Z,3.20
2019-01-02T11:12:09.426Z,3.20
2019-01-02T11:14:51.549Z,3.30
2019-01-02T11:17:48.900Z,3.40
2019-01-02T11:20:57.402Z,3.40
2019-01-02T11:24:04.708Z,3.60
2019-01-02T11:27:02.600Z,3.50
2019-01-02T11:30:36.639Z,3.60
2019-01-02T11:33:35.147Z,3.60
2019-01-02T11:36:20.510Z,3.50
2019-01-02T11:41:51.661Z,3.50
2019-01-02T11:44:45.849Z,3.40
2019-01-02T11:47:14.563Z,3.30
2019-01-02T11:49:43.225Z,3.30
2019-01-02T11:52:11.864Z,3.40
2019-01-02T11:54:40.528Z,3.50
2019-01-02T11:57:09.248Z,3.60
2019-01-02T11:59:37.933Z,3.70
2019-01-02T12:04:35.888Z,3.70
2019-01-02T12:07:04.886Z,3.90
2019-01-02T12:09:33.624Z,3.80
2019-01-02T12:12:02.253Z,3.70
2019-01-02T12:14:31.030Z,3.70
2019-01-02T12:16:59.784Z,3.40
2019-01-02T12:19:28.410Z,3.50
2019-01-02T12:21:57.117Z,3.50
2019-01-02T12:26:54.276Z,3.60
2019-01-02T12:29:25.385Z,3.70
2019-01-02T12:31:54.093Z,3.70
2019-01-02T12:34:22.737Z,3.70
2019-01-02T12:36:51.472Z,3.60
2019-01-02T12:39:20.129Z,3.60
2019-01-02T12:41:48.848Z,3.60
2019-01-02T12:44:18.329Z,3.50
2019-01-02T12:49:15.452Z,3.40
2019-01-02T12:51:44.141Z,3.50
2019-01-02T12:54:12.823Z,3.40
2019-01-02T12:56:41.453Z,3.50
2019-01-02T12:59:14.092Z,3.50
2019-01-02T13:02:22.234Z,3.40
2019-01-02T13:05:09.210Z,3.50
2019-01-02T13:08:07.660Z,3.20
2019-01-02T13:10:57.852Z,3.20
2019-01-02T13:14:00.827Z,3.20
2019-01-02T13:16:38.135Z,3.30
2019-01-02T13:19:42.455Z,3.40
2019-01-02T13:22:43.333Z,3.40
2019-01-02T13:25:24.913Z,3.20
2019-01-02T13:28:50.339Z,3.20
2019-01-02T13:31:45.893Z,3.30
2019-01-02T13:35:08.189Z,3.30
2019-01-02T13:38:05.502Z,3.10
2019-01-02T13:41:26.484Z,3.10
2019-01-02T13:44:29.141Z,3.00
2019-01-02T13:47:14.252Z,2.90
2019-01-02T13:50:19.944Z,3.10
2019-01-02T13:52:48.653Z,3.20
2019-01-02T13:57:46.711Z,3.20
2019-01-02T14:00:15.369Z,3.40
2019-01-02T14:02:44.052Z,3.40
2019-01-02T14:05:16.225Z,3.40
2019-01-02T14:07:44.950Z,3.10
2019-01-02T14:10:13.600Z,3.00
2019-01-02T14:12:42.350Z,3.00
2019-01-02T14:15:11.039Z,2.80
2019-01-02T14:20:08.020Z,2.80
2019-01-02T14:22:36.720Z,2.50
2019-01-02T14:25:05.481Z,2.30
2019-01-02T14:27:34.372Z,2.30
2019-01-02T14:30:03.025Z,2.30
2019-01-02T14:32:31.753Z,2.30
2019-01-02T14:35:00.643Z,2.30
2019-01-02T14:37:29.339Z,2.30
2019-01-02T14:42:26.400Z,2.10
2019-01-02T14:44:55.096Z,2.30
2019-01-02T14:47:23.815Z,2.40
2019-01-02T14:49:52.464Z,2.50
2019-01-02T14:52:21.119Z,2.60
2019-01-02T14:54:49.755Z,2.40
2019-01-02T14:57:18.391Z,2.30
2019-01-02T14:59:47.039Z,1.60
2019-01-02T15:04:43.973Z,1.50
2019-01-02T15:07:12.616Z,1.70
2019-01-02T15:09:41.260Z,1.90
2019-01-02T15:12:09.916Z,2.00
2019-01-02T15:14:38.574Z,2.10
2019-01-02T15:17:07.258Z,2.10
2019-01-02T15:19:36.116Z,2.10
2019-01-02T15:22:05.067Z,2.20
2019-01-02T15:27:02.179Z,2.20
2019-01-02T15:29:30.843Z,2.40
2019-01-02T15:31:59.506Z,2.50
2019-01-02T15:34:28.153Z,2.30
2019-01-02T15:36:56.800Z,2.30
2019-01-02T15:39:25.492Z,2.10
2019-01-02T15:41:54.218Z,2.00
2019-01-02T15:44:22.861Z,2.10
2019-01-02T15:49:20.218Z,2.10
2019-01-02T15:51:48.856Z,2.20
2019-01-02T15:54:17.510Z,2.30
2019-01-02T15:56:46.156Z,2.30
2019-01-02T15:59:14.941Z,2.30
2019-01-02T16:01:43.628Z,2.50
2019-01-02T16:04:12.272Z,3.40
2019-01-02T16:06:40.920Z,2.60
2019-01-02T16:11:38.008Z,2.70
2019-01-02T16:14:06.722Z,2.70
2019-01-02T16:16:35.396Z,2.80
2019-01-02T16:19:04.048Z,2.80
2019-01-02T16:21:32.776Z,2.90
2019-01-02T16:24:01.427Z,2.90
2019-01-02T16:26:30.385Z,2.60
2019-01-02T16:31:27.411Z,2.60
2019-01-02T16:33:56.088Z,2.80
2019-01-02T16:36:24.741Z,2.90
2019-01-02T16:38:53.415Z,2.80
2019-01-02T16:41:22.091Z,2.70
2019-01-02T16:43:50.811Z,2.40
2019-01-02T16:46:19.891Z,2.40
2019-01-02T16:48:48.531Z,1.90
2019-01-02T16:53:45.447Z,1.70
2019-01-02T16:56:14.182Z,1.70
2019-01-02T16:58:42.875Z,1.80
2019-01-02T17:01:11.567Z,2.00
2019-01-02T17:03:40.225Z,2.00
2019-01-02T17:06:08.856Z,2.00
2019-01-02T17:08:37.519Z,2.10
2019-01-02T17:11:06.432Z,2.00
2019-01-02T17:16:03.406Z,1.90
2019-01-02T17:18:32.045Z,2.10
2019-01-02T17:21:00.694Z,1.90
2019-01-02T17:23:29.344Z,1.90
2019-01-02T17:25:58.013Z,1.90
2019-01-02T17:28:26.707Z,2.00
2019-01-02T17:30:55.386Z,2.10
2019-01-02T17:33:24.283Z,2.00
2019-01-02T17:38:21.258Z,2.10
2019-01-02T17:40:49.954Z,2.10
2019-01-02T17:43:18.683Z,2.00
2019-01-02T17:45:47.344Z,2.00
2019-01-02T17:48:16.236Z,2.10
2019-01-02T17:50:44.920Z,2.10
2019-01-02T17:53:13.820Z,2.20
2019-01-02T17:55:42.721Z,2.20
2019-01-02T18:00:39.956Z,2.20
2019-01-02T18:03:08.645Z,2.20
2019-01-02T18:05:37.576Z,2.30
2019-01-02T18:08:06.287Z,2.30
2019-01-02T18:10:34.961Z,2.20
2019-01-02T18:13:03.687Z,2.10
2019-01-02T18:15:32.411Z,2.10
2019-01-02T18:18:01.347Z,2.00
2019-01-02T18:22:58.254Z,2.00
2019-01-02T18:25:26.892Z,2.10
2019-01-02T18:27:55.630Z,2.10
2019-01-02T18:30:24.561Z,2.10
2019-01-02T18:32:53.277Z,2.10
2019-01-02T18:35:22.184Z,2.10
2019-01-02T18:37:50.837Z,2.10
2019-01-02T18:40:20.859Z,2.10
2019-01-02T18:45:18.151Z,2.10
2019-01-02T18:47:47.049Z,2.10
2019-01-02T18:50:15.713Z,2.20
2019-01-02T18:52:44.423Z,2.20
2019-01-02T18:55:13.068Z,2.20
2019-01-02T18:57:41.840Z,2.20
2019-01-02T19:00:12.386Z,2.30
2019-01-02T19:02:41.057Z,2.20
2019-01-02T19:07:37.994Z,2.20
2019-01-02T19:10:06.921Z,2.30
2019-01-02T19:12:35.568Z,2.30
2019-01-02T19:15:04.726Z,2.50
2019-01-02T19:17:33.376Z,2.70
2019-01-02T19:20:02.074Z,2.70
2019-01-02T19:22:30.985Z,2.50
2019-01-02T19:24:59.876Z,2.30
2019-01-02T19:29:56.889Z,2.20
2019-01-02T19:32:25.586Z,2.20
2019-01-02T19:34:54.305Z,2.10
2019-01-02T19:37:22.952Z,2.00
2019-01-02T19:39:51.591Z,1.90
2019-01-02T19:42:20.268Z,1.80
2019-01-02T19:44:48.933Z,1.80
2019-01-02T19:47:17.624Z,1.60
2019-01-02T19:52:14.689Z,1.60
2019-01-02T19:54:43.364Z,1.60
2019-01-02T19:57:12.076Z,1.60
2019-01-02T19:59:40.711Z,1.50
2019-01-02T20:02:09.361Z,1.50
2019-01-02T20:04:38.114Z,1.50
2019-01-02T20:07:07.785Z,1.40
2019-01-02T20:09:36.647Z,0.70
2019-01-02T20:14:33.640Z,1.40
2019-01-02T20:17:02.398Z,1.40
2019-01-02T20:19:31.044Z,1.40
2019-01-02T20:21:59.730Z,1.40
2019-01-02T20:24:28.712Z,1.50
2019-01-02T20:26:57.445Z,1.50
2019-01-02T20:29:26.079Z,1.80
2019-01-02T20:34:23.356Z,1.30
2019-01-02T20:36:52.061Z,1.40
2019-01-02T20:39:20.701Z,1.30
2019-01-02T20:41:49.400Z,1.40
2019-01-02T20:44:18.085Z,1.30
2019-01-02T20:46:46.752Z,1.30
2019-01-02T20:49:15.456Z,1.30
2019-01-02T20:51:44.099Z,1.10
2019-01-02T20:56:41.272Z,1.20
2019-01-02T20:59:09.940Z,1.20
2019-01-02T21:01:38.605Z,1.10
2019-01-02T21:04:07.261Z,1.20
2019-01-02T21:06:36.034Z,1.20
2019-01-02T21:09:07.369Z,1.20
2019-01-02T21:11:36.036Z,1.20
2019-01-02T21:14:04.671Z,1.10
2019-01-02T21:19:01.661Z,1.00
2019-01-02T21:21:30.321Z,1.00
2019-01-02T21:23:59.256Z,1.00
2019-01-02T21:26:27.908Z,1.00
2019-01-02T21:28:56.554Z,0.90
2019-01-02T21:31:25.332Z,0.70
2019-01-02T21:33:53.977Z,0.60
2019-01-02T21:36:22.731Z,1.00
2019-01-02T21:41:19.913Z,0.80
2019-01-02T21:43:48.575Z,0.80
2019-01-02T21:46:17.300Z,0.70
2019-01-02T21:48:45.935Z,0.70
2019-01-02T21:51:14.813Z,0.70
2019-01-02T21:53:43.838Z,0.60
2019-01-02T21:56:12.482Z,0.70
2019-01-02T21:58:41.155Z,0.30
2019-01-02T22:03:38.078Z,0.80
2019-01-02T22:06:07.040Z,0.90
2019-01-02T22:08:35.788Z,0.70
2019-01-02T22:11:04.451Z,0.60
2019-01-02T22:13:33.117Z,0.60
2019-01-02T22:16:01.908Z,0.60
2019-01-02T22:18:30.861Z,0.70
2019-01-02T22:23:28.174Z,0.70
2019-01-02T22:25:56.912Z,0.80
2019-01-02T22:28:25.968Z,0.70
2019-01-02T22:30:55.123Z,0.70
2019-01-02T22:33:24.297Z,0.60
2019-01-02T22:35:53.464Z,0.50
2019-01-02T22:38:25.804Z,0.50
2019-01-02T22:40:54.685Z,0.60
2019-01-02T22:43:23.693Z,0.70
2019-01-02T22:48:20.871Z,0.70
2019-01-02T22:50:49.939Z,0.70
2019-01-02T22:53:18.900Z,0.80
2019-01-02T22:55:47.645Z,0.80
2019-01-02T22:58:16.584Z,0.80
2019-01-02T23:01:03.033Z,0.80
2019-01-02T23:03:40.179Z,0.60
2019-01-02T23:09:15.060Z,0.60
2019-01-02T23:11:59.930Z,0.70
2019-01-02T23:15:02.696Z,0.90
2019-01-02T23:17:53.273Z,1.00
2019-01-02T23:20:47.285Z,1.00
2019-01-02T23:23:46.114Z,0.90
2019-01-02T23:26:32.599Z,0.90
2019-01-02T23:29:23.506Z,0.90
2019-01-02T23:32:07.564Z,1.00
2019-01-02T23:34:55.364Z,1.00
2019-01-02T23:37:52.663Z,0.90
2019-01-02T23:40:38.843Z,1.00
2019-01-02T23:46:24.958Z,1.00
2019-01-02T23:49:23.970Z,1.00
2019-01-02T23:52:18.088Z,0.90
2019-01-02T23:55:08.864Z,0.90
2019-01-02T23:58:07.130Z,0.90
